sensor_id;sensor_type;location;lat;lon;timestamp;P1;durP1;ratioP1;P2;durP2;ratioP2
4595;SDS011;2310;49.978;8.742;2024-03-07T00:02:45;42.67;;;31.53;;
4595;SDS011;2310;49.978;8.742;2024-03-07T00:06:51;37.57;;;27.37;;
4595;SDS011;2310;49.978;8.742;2024-03-07T00:10:53;47.63;;;30.57;;
4595;SDS011;2310;49.978;8.742;2024-03-07T00:14:54;44.97;;;33.40;;
4595;SDS011;2310;49.978;8.742;2024-03-07T00:18:56;41.90;;;30.50;;
4595;SDS011;2310;49.978;8.742;2024-03-07T00:22:57;41.20;;;31.30;;
4595;SDS011;2310;49.978;8.742;2024-03-07T00:26:59;52.33;;;31.13;;
4595;SDS011;2310;49.978;8.742;2024-03-07T00:31:00;42.13;;;29.67;;
4595;SDS011;2310;49.978;8.742;2024-03-07T00:35:02;40.00;;;29.63;;
4595;SDS011;2310;49.978;8.742;2024-03-07T00:39:06;43.80;;;30.40;;
4595;SDS011;2310;49.978;8.742;2024-03-07T00:43:13;45.43;;;31.63;;
4595;SDS011;2310;49.978;8.742;2024-03-07T00:47:15;45.73;;;32.10;;
4595;SDS011;2310;49.978;8.742;2024-03-07T00:51:18;41.80;;;29.57;;
4595;SDS011;2310;49.978;8.742;2024-03-07T00:55:20;45.27;;;32.03;;
4595;SDS011;2310;49.978;8.742;2024-03-07T00:59:22;52.47;;;32.60;;
4595;SDS011;2310;49.978;8.742;2024-03-07T01:03:23;47.20;;;33.50;;
4595;SDS011;2310;49.978;8.742;2024-03-07T01:07:25;40.43;;;31.50;;
4595;SDS011;2310;49.978;8.742;2024-03-07T01:11:29;43.27;;;30.60;;
4595;SDS011;2310;49.978;8.742;2024-03-07T01:15:31;40.23;;;28.50;;
4595;SDS011;2310;49.978;8.742;2024-03-07T01:19:33;42.90;;;31.03;;
4595;SDS011;2310;49.978;8.742;2024-03-07T01:23:35;42.93;;;29.13;;
4595;SDS011;2310;49.978;8.742;2024-03-07T01:27:36;49.30;;;32.93;;
4595;SDS011;2310;49.978;8.742;2024-03-07T01:31:37;51.57;;;33.77;;
4595;SDS011;2310;49.978;8.742;2024-03-07T01:35:39;45.00;;;32.30;;
4595;SDS011;2310;49.978;8.742;2024-03-07T01:39:40;47.83;;;32.97;;
4595;SDS011;2310;49.978;8.742;2024-03-07T01:43:42;41.90;;;30.83;;
4595;SDS011;2310;49.978;8.742;2024-03-07T01:47:44;42.83;;;31.27;;
4595;SDS011;2310;49.978;8.742;2024-03-07T01:51:46;42.57;;;30.53;;
4595;SDS011;2310;49.978;8.742;2024-03-07T01:55:47;47.30;;;31.93;;
4595;SDS011;2310;49.978;8.742;2024-03-07T01:59:50;40.80;;;30.23;;
4595;SDS011;2310;49.978;8.742;2024-03-07T02:03:52;38.33;;;28.60;;
4595;SDS011;2310;49.978;8.742;2024-03-07T02:07:53;43.07;;;28.30;;
4595;SDS011;2310;49.978;8.742;2024-03-07T02:11:55;44.70;;;31.97;;
4595;SDS011;2310;49.978;8.742;2024-03-07T02:15:57;38.97;;;27.40;;
4595;SDS011;2310;49.978;8.742;2024-03-07T02:19:59;37.47;;;26.30;;
4595;SDS011;2310;49.978;8.742;2024-03-07T02:24:01;37.80;;;27.10;;
4595;SDS011;2310;49.978;8.742;2024-03-07T02:28:07;37.70;;;25.40;;
4595;SDS011;2310;49.978;8.742;2024-03-07T02:32:07;37.07;;;27.53;;
4595;SDS011;2310;49.978;8.742;2024-03-07T02:36:10;39.43;;;28.37;;
4595;SDS011;2310;49.978;8.742;2024-03-07T02:40:12;40.80;;;28.77;;
4595;SDS011;2310;49.978;8.742;2024-03-07T02:44:14;39.80;;;28.10;;
4595;SDS011;2310;49.978;8.742;2024-03-07T02:48:16;43.70;;;30.03;;
4595;SDS011;2310;49.978;8.742;2024-03-07T02:52:19;38.07;;;29.90;;
4595;SDS011;2310;49.978;8.742;2024-03-07T02:56:20;38.43;;;27.67;;
4595;SDS011;2310;49.978;8.742;2024-03-07T03:00:22;39.33;;;28.33;;
4595;SDS011;2310;49.978;8.742;2024-03-07T03:04:30;40.57;;;29.70;;
4595;SDS011;2310;49.978;8.742;2024-03-07T03:08:32;40.80;;;28.70;;
4595;SDS011;2310;49.978;8.742;2024-03-07T03:12:33;38.07;;;26.60;;
4595;SDS011;2310;49.978;8.742;2024-03-07T03:16:35;37.73;;;27.53;;
4595;SDS011;2310;49.978;8.742;2024-03-07T03:20:39;42.20;;;29.70;;
4595;SDS011;2310;49.978;8.742;2024-03-07T03:24:41;45.03;;;31.00;;
4595;SDS011;2310;49.978;8.742;2024-03-07T03:28:42;42.37;;;30.07;;
4595;SDS011;2310;49.978;8.742;2024-03-07T03:32:44;42.40;;;29.20;;
4595;SDS011;2310;49.978;8.742;2024-03-07T03:36:47;40.30;;;28.43;;
4595;SDS011;2310;49.978;8.742;2024-03-07T03:40:49;39.63;;;28.30;;
4595;SDS011;2310;49.978;8.742;2024-03-07T03:44:50;44.10;;;30.10;;
4595;SDS011;2310;49.978;8.742;2024-03-07T03:48:52;37.47;;;27.50;;
4595;SDS011;2310;49.978;8.742;2024-03-07T03:52:53;45.03;;;31.30;;
4595;SDS011;2310;49.978;8.742;2024-03-07T03:56:54;40.57;;;27.57;;
4595;SDS011;2310;49.978;8.742;2024-03-07T04:00:56;39.57;;;29.37;;
4595;SDS011;2310;49.978;8.742;2024-03-07T04:04:59;43.60;;;29.20;;
4595;SDS011;2310;49.978;8.742;2024-03-07T04:09:01;41.73;;;29.70;;
4595;SDS011;2310;49.978;8.742;2024-03-07T04:13:02;38.90;;;28.13;;
4595;SDS011;2310;49.978;8.742;2024-03-07T04:17:04;42.90;;;28.70;;
4595;SDS011;2310;49.978;8.742;2024-03-07T04:21:07;39.73;;;29.43;;
4595;SDS011;2310;49.978;8.742;2024-03-07T04:25:10;42.23;;;27.93;;
4595;SDS011;2310;49.978;8.742;2024-03-07T04:29:11;42.80;;;29.40;;
4595;SDS011;2310;49.978;8.742;2024-03-07T04:33:13;37.00;;;27.90;;
4595;SDS011;2310;49.978;8.742;2024-03-07T04:37:14;40.70;;;28.67;;
4595;SDS011;2310;49.978;8.742;2024-03-07T04:41:16;36.60;;;26.83;;
4595;SDS011;2310;49.978;8.742;2024-03-07T04:45:24;37.93;;;26.57;;
4595;SDS011;2310;49.978;8.742;2024-03-07T04:49:26;38.63;;;27.77;;
4595;SDS011;2310;49.978;8.742;2024-03-07T04:53:29;36.33;;;25.50;;
4595;SDS011;2310;49.978;8.742;2024-03-07T04:57:30;40.07;;;27.20;;
4595;SDS011;2310;49.978;8.742;2024-03-07T05:01:32;34.90;;;23.70;;
4595;SDS011;2310;49.978;8.742;2024-03-07T05:05:34;36.87;;;27.60;;
4595;SDS011;2310;49.978;8.742;2024-03-07T05:09:35;40.57;;;27.40;;
4595;SDS011;2310;49.978;8.742;2024-03-07T05:13:36;36.77;;;28.47;;
4595;SDS011;2310;49.978;8.742;2024-03-07T05:17:38;38.07;;;26.63;;
4595;SDS011;2310;49.978;8.742;2024-03-07T05:21:40;38.97;;;26.10;;
4595;SDS011;2310;49.978;8.742;2024-03-07T05:25:41;38.93;;;26.40;;
4595;SDS011;2310;49.978;8.742;2024-03-07T05:29:43;39.37;;;27.60;;
4595;SDS011;2310;49.978;8.742;2024-03-07T05:33:44;39.60;;;28.47;;
4595;SDS011;2310;49.978;8.742;2024-03-07T05:37:46;39.67;;;28.40;;
4595;SDS011;2310;49.978;8.742;2024-03-07T05:41:48;39.93;;;27.03;;
4595;SDS011;2310;49.978;8.742;2024-03-07T05:45:49;38.00;;;26.80;;
4595;SDS011;2310;49.978;8.742;2024-03-07T05:49:51;40.00;;;26.13;;
4595;SDS011;2310;49.978;8.742;2024-03-07T05:53:52;36.33;;;27.20;;
4595;SDS011;2310;49.978;8.742;2024-03-07T05:57:55;41.40;;;29.80;;
4595;SDS011;2310;49.978;8.742;2024-03-07T06:01:57;43.93;;;30.60;;
4595;SDS011;2310;49.978;8.742;2024-03-07T06:05:58;36.50;;;27.40;;
4595;SDS011;2310;49.978;8.742;2024-03-07T06:10:00;40.87;;;28.77;;
4595;SDS011;2310;49.978;8.742;2024-03-07T06:14:02;34.13;;;25.30;;
4595;SDS011;2310;49.978;8.742;2024-03-07T06:18:06;37.93;;;26.80;;
4595;SDS011;2310;49.978;8.742;2024-03-07T06:22:18;33.80;;;25.07;;
4595;SDS011;2310;49.978;8.742;2024-03-07T06:26:19;34.10;;;26.30;;
4595;SDS011;2310;49.978;8.742;2024-03-07T06:30:22;48.40;;;29.60;;
4595;SDS011;2310;49.978;8.742;2024-03-07T06:34:24;35.10;;;25.30;;
4595;SDS011;2310;49.978;8.742;2024-03-07T06:38:26;39.60;;;25.73;;
4595;SDS011;2310;49.978;8.742;2024-03-07T06:42:28;41.00;;;26.17;;
4595;SDS011;2310;49.978;8.742;2024-03-07T06:46:29;36.50;;;27.00;;
4595;SDS011;2310;49.978;8.742;2024-03-07T06:50:32;41.93;;;25.40;;
4595;SDS011;2310;49.978;8.742;2024-03-07T06:54:36;36.60;;;25.87;;
4595;SDS011;2310;49.978;8.742;2024-03-07T06:58:37;40.37;;;25.20;;
4595;SDS011;2310;49.978;8.742;2024-03-07T07:02:40;39.37;;;28.07;;
4595;SDS011;2310;49.978;8.742;2024-03-07T07:06:42;36.70;;;26.10;;
4595;SDS011;2310;49.978;8.742;2024-03-07T07:10:43;38.27;;;27.17;;
4595;SDS011;2310;49.978;8.742;2024-03-07T07:14:45;32.10;;;24.83;;
4595;SDS011;2310;49.978;8.742;2024-03-07T07:18:46;32.73;;;22.07;;
4595;SDS011;2310;49.978;8.742;2024-03-07T07:22:48;35.07;;;24.20;;
4595;SDS011;2310;49.978;8.742;2024-03-07T07:26:49;38.90;;;26.13;;
4595;SDS011;2310;49.978;8.742;2024-03-07T07:30:51;35.70;;;23.17;;
4595;SDS011;2310;49.978;8.742;2024-03-07T07:34:53;29.47;;;22.47;;
4595;SDS011;2310;49.978;8.742;2024-03-07T07:38:55;35.93;;;25.07;;
4595;SDS011;2310;49.978;8.742;2024-03-07T07:42:56;35.00;;;24.30;;
4595;SDS011;2310;49.978;8.742;2024-03-07T07:46:58;33.43;;;23.73;;
4595;SDS011;2310;49.978;8.742;2024-03-07T07:50:59;35.60;;;24.73;;
4595;SDS011;2310;49.978;8.742;2024-03-07T07:55:01;35.20;;;25.20;;
4595;SDS011;2310;49.978;8.742;2024-03-07T07:59:02;27.57;;;20.27;;
4595;SDS011;2310;49.978;8.742;2024-03-07T08:03:06;30.67;;;21.33;;
4595;SDS011;2310;49.978;8.742;2024-03-07T08:07:08;27.30;;;20.90;;
4595;SDS011;2310;49.978;8.742;2024-03-07T08:11:09;25.10;;;18.80;;
4595;SDS011;2310;49.978;8.742;2024-03-07T08:15:12;27.07;;;21.00;;
4595;SDS011;2310;49.978;8.742;2024-03-07T08:19:15;26.03;;;19.10;;
4595;SDS011;2310;49.978;8.742;2024-03-07T08:23:16;24.50;;;18.80;;
4595;SDS011;2310;49.978;8.742;2024-03-07T08:27:18;24.60;;;19.60;;
4595;SDS011;2310;49.978;8.742;2024-03-07T08:31:19;27.40;;;20.30;;
4595;SDS011;2310;49.978;8.742;2024-03-07T08:35:20;24.77;;;17.83;;
4595;SDS011;2310;49.978;8.742;2024-03-07T08:39:23;24.40;;;19.73;;
4595;SDS011;2310;49.978;8.742;2024-03-07T08:43:24;24.17;;;18.50;;
4595;SDS011;2310;49.978;8.742;2024-03-07T08:47:25;23.30;;;17.40;;
4595;SDS011;2310;49.978;8.742;2024-03-07T08:51:27;24.40;;;18.07;;
4595;SDS011;2310;49.978;8.742;2024-03-07T08:55:28;26.67;;;18.77;;
4595;SDS011;2310;49.978;8.742;2024-03-07T08:59:29;24.93;;;18.90;;
4595;SDS011;2310;49.978;8.742;2024-03-07T09:03:31;24.77;;;18.97;;
4595;SDS011;2310;49.978;8.742;2024-03-07T09:07:33;27.10;;;18.77;;
4595;SDS011;2310;49.978;8.742;2024-03-07T09:11:34;27.70;;;20.87;;
4595;SDS011;2310;49.978;8.742;2024-03-07T09:15:37;26.57;;;19.93;;
4595;SDS011;2310;49.978;8.742;2024-03-07T09:19:39;25.10;;;18.57;;
4595;SDS011;2310;49.978;8.742;2024-03-07T09:23:40;27.97;;;20.47;;
4595;SDS011;2310;49.978;8.742;2024-03-07T09:27:42;19.07;;;12.93;;
4595;SDS011;2310;49.978;8.742;2024-03-07T09:31:44;26.30;;;18.63;;
4595;SDS011;2310;49.978;8.742;2024-03-07T09:35:47;26.67;;;20.50;;
4595;SDS011;2310;49.978;8.742;2024-03-07T09:39:55;27.10;;;19.57;;
4595;SDS011;2310;49.978;8.742;2024-03-07T09:43:56;29.30;;;22.67;;
4595;SDS011;2310;49.978;8.742;2024-03-07T09:47:59;25.30;;;17.47;;
4595;SDS011;2310;49.978;8.742;2024-03-07T09:52:08;25.63;;;18.30;;
4595;SDS011;2310;49.978;8.742;2024-03-07T09:56:12;26.00;;;18.77;;
4595;SDS011;2310;49.978;8.742;2024-03-07T10:00:20;26.83;;;18.67;;
4595;SDS011;2310;49.978;8.742;2024-03-07T10:04:31;26.17;;;19.17;;
4595;SDS011;2310;49.978;8.742;2024-03-07T10:08:42;26.27;;;19.07;;
4595;SDS011;2310;49.978;8.742;2024-03-07T10:12:44;31.80;;;20.53;;
4595;SDS011;2310;49.978;8.742;2024-03-07T10:16:45;28.87;;;19.70;;
4595;SDS011;2310;49.978;8.742;2024-03-07T10:20:47;46.90;;;32.57;;
4595;SDS011;2310;49.978;8.742;2024-03-07T10:24:52;30.13;;;20.63;;
4595;SDS011;2310;49.978;8.742;2024-03-07T10:28:59;38.00;;;24.80;;
4595;SDS011;2310;49.978;8.742;2024-03-07T10:33:01;25.40;;;18.80;;
4595;SDS011;2310;49.978;8.742;2024-03-07T10:37:04;26.23;;;18.73;;
4595;SDS011;2310;49.978;8.742;2024-03-07T10:41:06;22.60;;;19.57;;
4595;SDS011;2310;49.978;8.742;2024-03-07T10:45:10;26.93;;;17.83;;
4595;SDS011;2310;49.978;8.742;2024-03-07T10:49:12;23.40;;;17.80;;
4595;SDS011;2310;49.978;8.742;2024-03-07T10:53:24;25.60;;;18.37;;
4595;SDS011;2310;49.978;8.742;2024-03-07T10:57:49;23.30;;;18.80;;
4595;SDS011;2310;49.978;8.742;2024-03-07T11:01:57;25.10;;;19.43;;
4595;SDS011;2310;49.978;8.742;2024-03-07T11:06:01;23.47;;;18.60;;
4595;SDS011;2310;49.978;8.742;2024-03-07T11:10:04;22.97;;;18.03;;
4595;SDS011;2310;49.978;8.742;2024-03-07T11:14:08;23.83;;;17.83;;
4595;SDS011;2310;49.978;8.742;2024-03-07T11:18:11;24.67;;;19.70;;
4595;SDS011;2310;49.978;8.742;2024-03-07T11:22:29;23.83;;;17.93;;
4595;SDS011;2310;49.978;8.742;2024-03-07T11:26:33;23.27;;;17.30;;
4595;SDS011;2310;49.978;8.742;2024-03-07T11:30:35;23.10;;;17.47;;
4595;SDS011;2310;49.978;8.742;2024-03-07T11:34:40;25.43;;;18.97;;
4595;SDS011;2310;49.978;8.742;2024-03-07T11:38:44;19.97;;;17.03;;
4595;SDS011;2310;49.978;8.742;2024-03-07T11:42:47;33.40;;;22.93;;
4595;SDS011;2310;49.978;8.742;2024-03-07T11:46:49;23.23;;;16.10;;
4595;SDS011;2310;49.978;8.742;2024-03-07T11:50:51;19.40;;;17.30;;
4595;SDS011;2310;49.978;8.742;2024-03-07T11:54:52;19.07;;;15.27;;
4595;SDS011;2310;49.978;8.742;2024-03-07T11:58:54;17.37;;;15.20;;
4595;SDS011;2310;49.978;8.742;2024-03-07T12:02:57;18.60;;;13.70;;
4595;SDS011;2310;49.978;8.742;2024-03-07T12:07:00;21.90;;;16.53;;
4595;SDS011;2310;49.978;8.742;2024-03-07T12:11:01;16.27;;;13.07;;
4595;SDS011;2310;49.978;8.742;2024-03-07T12:15:04;17.80;;;12.93;;
4595;SDS011;2310;49.978;8.742;2024-03-07T12:19:09;17.33;;;14.30;;
4595;SDS011;2310;49.978;8.742;2024-03-07T12:23:11;18.20;;;13.50;;
4595;SDS011;2310;49.978;8.742;2024-03-07T12:27:14;14.03;;;11.77;;
4595;SDS011;2310;49.978;8.742;2024-03-07T12:31:16;17.93;;;13.70;;
4595;SDS011;2310;49.978;8.742;2024-03-07T12:35:18;19.40;;;14.97;;
4595;SDS011;2310;49.978;8.742;2024-03-07T12:39:26;16.40;;;12.53;;
4595;SDS011;2310;49.978;8.742;2024-03-07T12:43:29;17.10;;;12.87;;
4595;SDS011;2310;49.978;8.742;2024-03-07T12:47:34;16.03;;;11.03;;
4595;SDS011;2310;49.978;8.742;2024-03-07T12:51:42;15.73;;;12.77;;
4595;SDS011;2310;49.978;8.742;2024-03-07T12:55:44;18.40;;;13.23;;
4595;SDS011;2310;49.978;8.742;2024-03-07T12:59:45;17.53;;;13.33;;
4595;SDS011;2310;49.978;8.742;2024-03-07T13:03:47;17.20;;;12.00;;
4595;SDS011;2310;49.978;8.742;2024-03-07T13:07:49;15.73;;;11.77;;
4595;SDS011;2310;49.978;8.742;2024-03-07T13:11:51;15.20;;;12.43;;
4595;SDS011;2310;49.978;8.742;2024-03-07T13:15:52;14.97;;;12.80;;
4595;SDS011;2310;49.978;8.742;2024-03-07T13:19:55;14.10;;;11.23;;
4595;SDS011;2310;49.978;8.742;2024-03-07T13:23:59;14.73;;;11.87;;
4595;SDS011;2310;49.978;8.742;2024-03-07T13:32:09;16.63;;;12.07;;
4595;SDS011;2310;49.978;8.742;2024-03-07T13:36:12;12.37;;;10.03;;
4595;SDS011;2310;49.978;8.742;2024-03-07T13:40:18;15.10;;;12.27;;
4595;SDS011;2310;49.978;8.742;2024-03-07T13:44:26;14.27;;;11.40;;
4595;SDS011;2310;49.978;8.742;2024-03-07T13:48:30;16.80;;;12.13;;
4595;SDS011;2310;49.978;8.742;2024-03-07T13:52:35;14.63;;;12.23;;
4595;SDS011;2310;49.978;8.742;2024-03-07T13:56:47;16.77;;;11.43;;
4595;SDS011;2310;49.978;8.742;2024-03-07T14:00:54;17.00;;;12.57;;
4595;SDS011;2310;49.978;8.742;2024-03-07T14:05:13;14.13;;;11.20;;
4595;SDS011;2310;49.978;8.742;2024-03-07T14:14:00;14.47;;;11.13;;
4595;SDS011;2310;49.978;8.742;2024-03-07T14:22:30;14.43;;;9.87;;
4595;SDS011;2310;49.978;8.742;2024-03-07T14:26:52;17.37;;;11.27;;
4595;SDS011;2310;49.978;8.742;2024-03-07T14:31:12;14.60;;;11.23;;
4595;SDS011;2310;49.978;8.742;2024-03-07T14:35:31;13.77;;;11.93;;
4595;SDS011;2310;49.978;8.742;2024-03-07T14:39:34;15.13;;;10.70;;
4595;SDS011;2310;49.978;8.742;2024-03-07T14:43:38;18.53;;;11.60;;
4595;SDS011;2310;49.978;8.742;2024-03-07T14:47:40;13.13;;;9.57;;
4595;SDS011;2310;49.978;8.742;2024-03-07T14:51:41;15.37;;;11.00;;
4595;SDS011;2310;49.978;8.742;2024-03-07T14:55:45;13.47;;;9.90;;
4595;SDS011;2310;49.978;8.742;2024-03-07T14:59:46;15.40;;;9.10;;
4595;SDS011;2310;49.978;8.742;2024-03-07T15:03:49;16.87;;;10.77;;
4595;SDS011;2310;49.978;8.742;2024-03-07T15:07:52;16.63;;;11.30;;
4595;SDS011;2310;49.978;8.742;2024-03-07T15:11:55;15.57;;;10.40;;
4595;SDS011;2310;49.978;8.742;2024-03-07T15:15:56;13.57;;;9.90;;
4595;SDS011;2310;49.978;8.742;2024-03-07T15:19:59;14.57;;;11.47;;
4595;SDS011;2310;49.978;8.742;2024-03-07T15:24:01;15.77;;;9.93;;
4595;SDS011;2310;49.978;8.742;2024-03-07T15:32:19;13.70;;;10.63;;
4595;SDS011;2310;49.978;8.742;2024-03-07T15:36:21;13.10;;;10.83;;
4595;SDS011;2310;49.978;8.742;2024-03-07T15:40:23;17.90;;;10.07;;
4595;SDS011;2310;49.978;8.742;2024-03-07T15:44:24;16.50;;;12.13;;
4595;SDS011;2310;49.978;8.742;2024-03-07T15:48:26;14.93;;;11.07;;
4595;SDS011;2310;49.978;8.742;2024-03-07T15:52:28;17.13;;;12.80;;
4595;SDS011;2310;49.978;8.742;2024-03-07T15:56:29;16.80;;;12.40;;
4595;SDS011;2310;49.978;8.742;2024-03-07T16:00:31;17.60;;;12.87;;
4595;SDS011;2310;49.978;8.742;2024-03-07T16:04:35;17.10;;;12.60;;
4595;SDS011;2310;49.978;8.742;2024-03-07T16:08:37;18.10;;;12.17;;
4595;SDS011;2310;49.978;8.742;2024-03-07T16:12:40;17.90;;;11.70;;
4595;SDS011;2310;49.978;8.742;2024-03-07T16:16:41;16.53;;;11.87;;
4595;SDS011;2310;49.978;8.742;2024-03-07T16:20:43;18.70;;;12.43;;
4595;SDS011;2310;49.978;8.742;2024-03-07T16:24:46;18.70;;;12.80;;
4595;SDS011;2310;49.978;8.742;2024-03-07T16:28:48;23.17;;;14.53;;
4595;SDS011;2310;49.978;8.742;2024-03-07T16:32:50;18.87;;;13.17;;
4595;SDS011;2310;49.978;8.742;2024-03-07T16:36:54;20.87;;;14.27;;
4595;SDS011;2310;49.978;8.742;2024-03-07T16:40:57;15.67;;;11.60;;
4595;SDS011;2310;49.978;8.742;2024-03-07T16:44:58;17.97;;;12.37;;
4595;SDS011;2310;49.978;8.742;2024-03-07T16:49:00;16.93;;;11.00;;
4595;SDS011;2310;49.978;8.742;2024-03-07T16:53:02;14.47;;;10.57;;
4595;SDS011;2310;49.978;8.742;2024-03-07T16:57:07;18.17;;;11.73;;
4595;SDS011;2310;49.978;8.742;2024-03-07T17:01:09;18.13;;;12.10;;
4595;SDS011;2310;49.978;8.742;2024-03-07T17:05:12;18.37;;;13.07;;
4595;SDS011;2310;49.978;8.742;2024-03-07T17:09:19;21.37;;;12.07;;
4595;SDS011;2310;49.978;8.742;2024-03-07T17:13:20;16.70;;;12.47;;
4595;SDS011;2310;49.978;8.742;2024-03-07T17:17:24;19.13;;;13.07;;
4595;SDS011;2310;49.978;8.742;2024-03-07T17:21:25;14.83;;;11.23;;
4595;SDS011;2310;49.978;8.742;2024-03-07T17:25:27;14.63;;;10.03;;
4595;SDS011;2310;49.978;8.742;2024-03-07T17:29:32;17.60;;;12.07;;
4595;SDS011;2310;49.978;8.742;2024-03-07T17:33:34;16.20;;;11.83;;
4595;SDS011;2310;49.978;8.742;2024-03-07T17:37:40;15.27;;;11.80;;
4595;SDS011;2310;49.978;8.742;2024-03-07T17:41:40;15.57;;;10.83;;
4595;SDS011;2310;49.978;8.742;2024-03-07T17:45:41;18.87;;;12.63;;
4595;SDS011;2310;49.978;8.742;2024-03-07T17:49:43;17.87;;;12.47;;
4595;SDS011;2310;49.978;8.742;2024-03-07T17:53:44;17.10;;;12.60;;
4595;SDS011;2310;49.978;8.742;2024-03-07T17:57:47;17.40;;;13.37;;
4595;SDS011;2310;49.978;8.742;2024-03-07T18:01:50;19.27;;;13.20;;
4595;SDS011;2310;49.978;8.742;2024-03-07T18:05:51;17.47;;;11.90;;
4595;SDS011;2310;49.978;8.742;2024-03-07T18:09:55;16.80;;;12.77;;
4595;SDS011;2310;49.978;8.742;2024-03-07T18:13:56;18.53;;;12.23;;
4595;SDS011;2310;49.978;8.742;2024-03-07T18:18:04;17.83;;;11.37;;
4595;SDS011;2310;49.978;8.742;2024-03-07T18:22:12;19.53;;;13.00;;
4595;SDS011;2310;49.978;8.742;2024-03-07T18:26:15;18.67;;;12.23;;
4595;SDS011;2310;49.978;8.742;2024-03-07T18:30:17;17.10;;;13.10;;
4595;SDS011;2310;49.978;8.742;2024-03-07T18:34:21;17.73;;;12.80;;
4595;SDS011;2310;49.978;8.742;2024-03-07T18:38:23;19.87;;;13.30;;
4595;SDS011;2310;49.978;8.742;2024-03-07T18:42:26;16.93;;;13.27;;
4595;SDS011;2310;49.978;8.742;2024-03-07T18:46:32;17.67;;;12.70;;
4595;SDS011;2310;49.978;8.742;2024-03-07T18:50:35;19.40;;;13.40;;
4595;SDS011;2310;49.978;8.742;2024-03-07T18:54:41;16.17;;;12.90;;
4595;SDS011;2310;49.978;8.742;2024-03-07T18:58:42;17.07;;;12.60;;
4595;SDS011;2310;49.978;8.742;2024-03-07T19:02:46;16.23;;;11.37;;
4595;SDS011;2310;49.978;8.742;2024-03-07T19:06:48;18.93;;;14.00;;
4595;SDS011;2310;49.978;8.742;2024-03-07T19:10:52;16.47;;;13.17;;
4595;SDS011;2310;49.978;8.742;2024-03-07T19:14:56;20.90;;;12.33;;
4595;SDS011;2310;49.978;8.742;2024-03-07T19:18:58;15.53;;;11.40;;
4595;SDS011;2310;49.978;8.742;2024-03-07T19:22:59;18.43;;;12.77;;
4595;SDS011;2310;49.978;8.742;2024-03-07T19:27:00;15.93;;;11.77;;
4595;SDS011;2310;49.978;8.742;2024-03-07T19:31:02;19.03;;;13.57;;
4595;SDS011;2310;49.978;8.742;2024-03-07T19:35:04;20.03;;;12.47;;
4595;SDS011;2310;49.978;8.742;2024-03-07T19:39:06;17.13;;;11.57;;
4595;SDS011;2310;49.978;8.742;2024-03-07T19:43:09;15.43;;;12.33;;
4595;SDS011;2310;49.978;8.742;2024-03-07T19:47:10;20.13;;;13.27;;
4595;SDS011;2310;49.978;8.742;2024-03-07T19:51:14;17.67;;;13.40;;
4595;SDS011;2310;49.978;8.742;2024-03-07T19:55:15;16.60;;;11.20;;
4595;SDS011;2310;49.978;8.742;2024-03-07T19:59:18;20.23;;;12.77;;
4595;SDS011;2310;49.978;8.742;2024-03-07T20:03:21;23.60;;;14.80;;
4595;SDS011;2310;49.978;8.742;2024-03-07T20:07:24;16.80;;;13.30;;
4595;SDS011;2310;49.978;8.742;2024-03-07T20:11:25;19.80;;;14.30;;
4595;SDS011;2310;49.978;8.742;2024-03-07T20:15:27;17.60;;;12.77;;
4595;SDS011;2310;49.978;8.742;2024-03-07T20:19:28;16.83;;;12.97;;
4595;SDS011;2310;49.978;8.742;2024-03-07T20:23:32;18.17;;;13.27;;
4595;SDS011;2310;49.978;8.742;2024-03-07T20:27:33;16.37;;;13.80;;
4595;SDS011;2310;49.978;8.742;2024-03-07T20:31:36;20.77;;;13.33;;
4595;SDS011;2310;49.978;8.742;2024-03-07T20:35:38;19.30;;;14.00;;
4595;SDS011;2310;49.978;8.742;2024-03-07T20:39:39;19.30;;;14.23;;
4595;SDS011;2310;49.978;8.742;2024-03-07T20:43:43;24.30;;;14.70;;
4595;SDS011;2310;49.978;8.742;2024-03-07T20:47:46;19.73;;;13.60;;
4595;SDS011;2310;49.978;8.742;2024-03-07T20:51:51;20.10;;;14.73;;
4595;SDS011;2310;49.978;8.742;2024-03-07T20:55:53;20.00;;;13.93;;
4595;SDS011;2310;49.978;8.742;2024-03-07T20:59:55;19.53;;;14.13;;
4595;SDS011;2310;49.978;8.742;2024-03-07T21:03:57;17.80;;;13.70;;
4595;SDS011;2310;49.978;8.742;2024-03-07T21:08:00;17.03;;;13.30;;
4595;SDS011;2310;49.978;8.742;2024-03-07T21:12:03;21.57;;;16.13;;
4595;SDS011;2310;49.978;8.742;2024-03-07T21:16:05;19.03;;;16.13;;
4595;SDS011;2310;49.978;8.742;2024-03-07T21:20:08;21.20;;;15.50;;
4595;SDS011;2310;49.978;8.742;2024-03-07T21:24:16;20.90;;;15.83;;
4595;SDS011;2310;49.978;8.742;2024-03-07T21:28:17;24.33;;;17.80;;
4595;SDS011;2310;49.978;8.742;2024-03-07T21:32:19;21.43;;;15.80;;
4595;SDS011;2310;49.978;8.742;2024-03-07T21:36:20;22.43;;;16.83;;
4595;SDS011;2310;49.978;8.742;2024-03-07T21:40:22;21.33;;;15.10;;
4595;SDS011;2310;49.978;8.742;2024-03-07T21:44:24;23.00;;;16.73;;
4595;SDS011;2310;49.978;8.742;2024-03-07T21:48:25;20.40;;;16.27;;
4595;SDS011;2310;49.978;8.742;2024-03-07T21:52:27;28.67;;;18.13;;
4595;SDS011;2310;49.978;8.742;2024-03-07T21:56:29;22.00;;;16.50;;
4595;SDS011;2310;49.978;8.742;2024-03-07T22:00:31;25.97;;;15.87;;
4595;SDS011;2310;49.978;8.742;2024-03-07T22:04:33;23.10;;;17.63;;
4595;SDS011;2310;49.978;8.742;2024-03-07T22:08:36;23.30;;;18.20;;
4595;SDS011;2310;49.978;8.742;2024-03-07T22:12:41;20.43;;;15.13;;
4595;SDS011;2310;49.978;8.742;2024-03-07T22:16:50;24.50;;;17.60;;
4595;SDS011;2310;49.978;8.742;2024-03-07T22:20:52;27.10;;;17.77;;
4595;SDS011;2310;49.978;8.742;2024-03-07T22:24:53;27.20;;;19.43;;
4595;SDS011;2310;49.978;8.742;2024-03-07T22:28:57;24.40;;;18.13;;
4595;SDS011;2310;49.978;8.742;2024-03-07T22:32:59;26.37;;;17.90;;
4595;SDS011;2310;49.978;8.742;2024-03-07T22:37:01;22.00;;;16.57;;
4595;SDS011;2310;49.978;8.742;2024-03-07T22:41:02;27.43;;;19.40;;
4595;SDS011;2310;49.978;8.742;2024-03-07T22:45:07;24.50;;;19.30;;
4595;SDS011;2310;49.978;8.742;2024-03-07T22:49:11;31.10;;;19.70;;
4595;SDS011;2310;49.978;8.742;2024-03-07T22:53:13;22.70;;;16.37;;
4595;SDS011;2310;49.978;8.742;2024-03-07T22:57:14;26.73;;;17.67;;
4595;SDS011;2310;49.978;8.742;2024-03-07T23:01:16;26.80;;;20.03;;
4595;SDS011;2310;49.978;8.742;2024-03-07T23:05:19;23.50;;;17.27;;
4595;SDS011;2310;49.978;8.742;2024-03-07T23:09:23;24.67;;;17.87;;
4595;SDS011;2310;49.978;8.742;2024-03-07T23:13:26;24.50;;;17.40;;
4595;SDS011;2310;49.978;8.742;2024-03-07T23:17:28;25.10;;;18.10;;
4595;SDS011;2310;49.978;8.742;2024-03-07T23:21:29;25.97;;;19.57;;
4595;SDS011;2310;49.978;8.742;2024-03-07T23:25:31;26.50;;;18.27;;
4595;SDS011;2310;49.978;8.742;2024-03-07T23:29:32;24.20;;;17.77;;
4595;SDS011;2310;49.978;8.742;2024-03-07T23:33:34;24.80;;;17.80;;
4595;SDS011;2310;49.978;8.742;2024-03-07T23:37:35;23.67;;;17.93;;
4595;SDS011;2310;49.978;8.742;2024-03-07T23:41:37;22.97;;;17.80;;
4595;SDS011;2310;49.978;8.742;2024-03-07T23:49:54;24.40;;;17.87;;
4595;SDS011;2310;49.978;8.742;2024-03-07T23:53:56;26.70;;;19.73;;
4595;SDS011;2310;49.978;8.742;2024-03-07T23:57:57;25.63;;;17.67;;
